METAR Data
IDs: Format: Raw Decoded Include TAF

Data at: 1712 UTC 03 Dec 2021

KPEZ 031655Z AUTO 14006KT 10SM SCT012 24/20 A3009 RMK AO2 T02400198